Etusivu
METAR-TAF:

METAR-TAF

Lentoasemat :

Bella Bella, Brittiläinen Kolumbia, Kanada

Leveyspiiri: 52-11-06N, Pituuspiiri: 128-09-24W, korkeus merenpinnasta: 43 m

Tämänhetkinen sää

Tämä raportti tehtiin 1 tunti ja 2 minuuttia sitten, kello 21.00 UTC
Tuuli 3 kn pohjoisesta
Lämpötila 9°C
Kosteus 87%
Ilmanpaine 1012 hPa
Näkyvyys: 14.5 km
Hajanaisia pilviä 17000 ft:n korkeudessa

METAR: CBBC 182100Z AUTO 35003KT 9SM SCT170 09/07 A2988 RMK SLP122

Aika: 14:02 (22:02 UTC)

Sääennuste

Tämä raportti tehtiin 3 tuntia ja 24 minuuttia sitten, kello 18.38 UTC
Ennuste voimassa 18. päivästä klo 19 UTC - 19. päivään klo 06 UTC
Tuuli 3 kn eri suunnista
Näkyvyys: 10 km
Hajanaisia pilviä 5000 ft:n korkeudessa
Hajonneita pilviä 15000 ft:n korkeudessa
Ajoittain
18. päivästä klo 19 UTC - 19. päivään klo 06 UTC
Hajonneita pilviä 5000 ft:n korkeudessa

TAF: CBBC 181838Z 1819/1906 VRB03KT P6SM SCT050 BKN150 TEMPO 1819/1906 BKN050 RMK FCST BASED ON AUTO OBS. NXT FCST BY 190100Z

Säähavainnot ja -ennusteet yli 4000 lentoasemalta (METAR- ja TAF-raportit).

Käytössä olevat sääasemat on merkitty karttaan keltaisilla ja punaisilla pisteillä.

Aseta hiiri pisteen päälle nähdäksesi sääaseman nimen.

Klikkaa sitten nähdäksesi säähavainnot ja -ennusteet.

Kartan vaihtaminen: klikkaa mustalla rastilla varustettuja vihreitä pisteitä, niin voit zoomata sisään; viivalla varustettua vihreää pistettä, niin voit zoomata ulos tai vihreitä nuolia, niin pääset viereisille kartoille.


METAR-TAF: